createdAt,value
2019-05-30T00:01:24.822Z,11.50
2019-05-30T00:04:26.396Z,11.63
2019-05-30T00:07:28.007Z,11.63
2019-05-30T00:10:29.557Z,11.25
2019-05-30T00:13:31.099Z,11.19
2019-05-30T00:16:34.291Z,11.31
2019-05-30T00:19:35.830Z,11.44
2019-05-30T00:22:37.429Z,11.38
2019-05-30T00:25:39.016Z,11.31
2019-05-30T00:28:40.652Z,11.31
2019-05-30T00:31:42.356Z,11.25
2019-05-30T00:34:44.016Z,11.38
2019-05-30T00:37:45.669Z,11.25
2019-05-30T00:40:47.273Z,11.25
2019-05-30T00:43:48.848Z,11.25
2019-05-30T00:46:50.412Z,11.12
2019-05-30T00:49:52.023Z,11.31
2019-05-30T00:52:53.602Z,11.25
2019-05-30T00:55:56.601Z,11.12
2019-05-30T00:59:00.584Z,11.12
2019-05-30T01:02:02.783Z,11.19
2019-05-30T01:05:05.173Z,11.19
2019-05-30T01:08:07.196Z,11.12
2019-05-30T01:11:08.951Z,11.19
2019-05-30T01:14:10.523Z,10.94
2019-05-30T01:17:12.089Z,11.00
2019-05-30T01:20:14.306Z,11.12
2019-05-30T01:23:15.796Z,11.19
2019-05-30T01:26:17.369Z,10.81
2019-05-30T01:29:19.954Z,10.56
2019-05-30T01:32:30.585Z,10.81
2019-05-30T01:35:32.620Z,10.88
2019-05-30T01:38:34.138Z,10.56
2019-05-30T01:41:35.667Z,10.75
2019-05-30T01:44:37.233Z,10.75
2019-05-30T01:47:38.836Z,10.69
2019-05-30T01:50:40.336Z,10.94
2019-05-30T01:53:41.831Z,10.94
2019-05-30T01:56:44.294Z,10.94
2019-05-30T01:59:45.862Z,10.88
2019-05-30T02:02:47.378Z,10.75
2019-05-30T02:05:48.908Z,10.81
2019-05-30T02:08:50.463Z,10.75
2019-05-30T02:11:51.983Z,10.69
2019-05-30T02:14:53.550Z,10.75
2019-05-30T02:17:55.087Z,10.63
2019-05-30T02:20:56.620Z,10.56
2019-05-30T02:23:58.165Z,10.50
2019-05-30T02:27:00.067Z,10.50
2019-05-30T02:30:04.006Z,10.38
2019-05-30T02:33:07.447Z,10.44
2019-05-30T02:36:10.987Z,10.50
2019-05-30T02:39:12.475Z,10.31
2019-05-30T02:42:14.023Z,10.31
2019-05-30T02:45:17.646Z,10.13
2019-05-30T02:48:19.137Z,10.19
2019-05-30T02:51:20.650Z,10.19
2019-05-30T02:54:22.159Z,10.06
2019-05-30T02:57:23.676Z,10.13
2019-05-30T03:00:34.674Z,10.25
2019-05-30T03:03:36.231Z,10.19
2019-05-30T03:06:37.806Z,10.06
2019-05-30T03:09:39.583Z,9.94
2019-05-30T03:12:41.224Z,10.00
2019-05-30T03:15:42.787Z,10.06
2019-05-30T03:18:44.274Z,10.00
2019-05-30T03:21:45.772Z,10.06
2019-05-30T03:24:47.361Z,10.06
2019-05-30T03:27:48.849Z,10.00
2019-05-30T03:30:50.324Z,9.94
2019-05-30T03:33:51.789Z,9.94
2019-05-30T03:36:53.360Z,10.00
2019-05-30T03:39:54.909Z,10.06
2019-05-30T03:42:56.469Z,9.81
2019-05-30T03:45:58.603Z,9.88
2019-05-30T03:49:04.331Z,9.88
2019-05-30T03:52:10.619Z,9.94
2019-05-30T03:55:14.442Z,9.81
2019-05-30T03:58:49.283Z,9.81
2019-05-30T04:02:11.067Z,9.88
2019-05-30T04:05:19.310Z,9.81
2019-05-30T04:08:22.921Z,9.94
2019-05-30T04:11:34.276Z,9.88
2019-05-30T04:14:40.513Z,9.81
2019-05-30T04:17:42.066Z,9.88
2019-05-30T04:20:43.558Z,9.88
2019-05-30T04:23:45.038Z,9.94
2019-05-30T04:26:46.510Z,9.88
2019-05-30T04:29:48.022Z,9.94
2019-05-30T04:32:49.547Z,10.00
2019-05-30T04:35:51.041Z,9.94
2019-05-30T04:38:52.546Z,9.94
2019-05-30T04:41:54.005Z,10.06
2019-05-30T04:44:55.498Z,10.06
2019-05-30T04:47:56.987Z,10.06
2019-05-30T04:50:58.471Z,10.13
2019-05-30T04:53:59.922Z,10.25
2019-05-30T04:57:01.382Z,10.19
2019-05-30T05:00:02.971Z,10.25
2019-05-30T05:03:05.489Z,10.31
2019-05-30T05:06:08.081Z,10.31
2019-05-30T05:09:09.619Z,10.44
2019-05-30T05:12:12.029Z,10.50
2019-05-30T05:15:14.299Z,10.63
2019-05-30T05:18:16.969Z,10.75
2019-05-30T05:21:18.870Z,10.81
2019-05-30T05:24:21.470Z,10.75
2019-05-30T05:27:23.995Z,10.75
2019-05-30T05:30:25.719Z,10.75
2019-05-30T05:33:27.219Z,10.81
2019-05-30T05:36:28.750Z,10.88
2019-05-30T05:39:30.298Z,11.00
2019-05-30T05:42:31.803Z,11.00
2019-05-30T05:45:33.343Z,11.06
2019-05-30T05:48:34.856Z,11.19
2019-05-30T05:51:36.362Z,11.25
2019-05-30T05:54:37.883Z,11.38
2019-05-30T05:57:39.414Z,11.56
2019-05-30T06:00:40.923Z,11.69
2019-05-30T06:03:42.434Z,11.81
2019-05-30T06:06:43.983Z,11.88
2019-05-30T06:09:45.533Z,12.06
2019-05-30T06:12:47.085Z,12.19
2019-05-30T06:15:48.986Z,12.25
2019-05-30T06:18:50.496Z,12.44
2019-05-30T06:21:54.304Z,12.50
2019-05-30T06:24:55.312Z,12.56
2019-05-30T06:27:56.847Z,12.69
2019-05-30T06:30:59.207Z,12.69
2019-05-30T06:34:00.906Z,12.75
2019-05-30T06:37:02.504Z,12.69
2019-05-30T06:40:04.490Z,12.75
2019-05-30T06:43:06.223Z,12.94
2019-05-30T06:46:07.757Z,13.06
2019-05-30T06:49:09.239Z,13.00
2019-05-30T06:52:10.728Z,12.94
2019-05-30T06:55:12.218Z,13.13
2019-05-30T06:58:13.745Z,13.31
2019-05-30T07:01:15.240Z,13.38
2019-05-30T07:04:17.229Z,13.50
2019-05-30T07:07:19.504Z,13.75
2019-05-30T07:10:22.616Z,13.94
2019-05-30T07:13:25.247Z,14.06
2019-05-30T07:16:27.367Z,14.44
2019-05-30T07:19:29.572Z,14.44
2019-05-30T07:22:31.882Z,14.69
2019-05-30T07:25:34.099Z,14.81
2019-05-30T07:28:35.890Z,14.94
2019-05-30T07:31:37.523Z,15.00
2019-05-30T07:34:39.015Z,15.19
2019-05-30T07:37:40.537Z,15.38
2019-05-30T07:40:42.045Z,15.44
2019-05-30T07:43:43.656Z,15.50
2019-05-30T07:46:45.202Z,15.75
2019-05-30T07:49:46.696Z,15.94
2019-05-30T07:52:48.225Z,15.88
2019-05-30T07:55:49.730Z,16.25
2019-05-30T07:58:51.233Z,16.12
2019-05-30T08:01:52.771Z,16.31
2019-05-30T08:04:54.277Z,16.12
2019-05-30T08:07:55.852Z,15.88
2019-05-30T08:11:09.016Z,16.25
2019-05-30T08:14:00.577Z,16.75
2019-05-30T08:17:02.093Z,16.62
2019-05-30T08:20:03.710Z,16.87
2019-05-30T08:23:05.218Z,17.00
2019-05-30T08:26:06.838Z,17.56
2019-05-30T08:29:08.471Z,17.31
2019-05-30T08:32:09.965Z,17.12
2019-05-30T08:35:11.564Z,17.37
2019-05-30T08:38:13.164Z,17.37
2019-05-30T08:41:14.691Z,17.44
2019-05-30T08:44:16.268Z,18.06
2019-05-30T08:47:17.774Z,18.00
2019-05-30T08:50:19.298Z,18.37
2019-05-30T08:53:20.783Z,17.94
2019-05-30T08:56:22.299Z,18.50
2019-05-30T08:59:23.793Z,18.56
2019-05-30T09:02:25.422Z,18.81
2019-05-30T09:05:26.958Z,18.37
2019-05-30T09:08:28.442Z,18.31
2019-05-30T09:11:29.991Z,18.44
2019-05-30T09:14:31.492Z,18.94
2019-05-30T09:17:33.004Z,19.44
2019-05-30T09:20:34.497Z,18.87
2019-05-30T09:23:38.364Z,19.00
2019-05-30T09:26:43.780Z,19.50
2019-05-30T09:29:42.855Z,19.62
2019-05-30T09:32:45.279Z,19.81
2019-05-30T09:35:47.090Z,20.12
2019-05-30T09:38:49.755Z,20.00
2019-05-30T09:41:51.454Z,20.06
2019-05-30T09:44:52.955Z,19.87
2019-05-30T09:47:54.511Z,20.37
2019-05-30T09:50:56.009Z,19.62
2019-05-30T09:53:57.515Z,19.31
2019-05-30T09:56:59.023Z,20.00
2019-05-30T10:00:00.538Z,20.06
2019-05-30T10:03:02.351Z,20.31
2019-05-30T10:06:04.147Z,19.69
2019-05-30T10:09:08.853Z,19.81
2019-05-30T10:12:10.425Z,20.12
2019-05-30T10:15:12.840Z,20.37
2019-05-30T10:18:14.370Z,20.12
2019-05-30T10:21:15.878Z,20.31
2019-05-30T10:24:17.364Z,20.06
2019-05-30T10:27:18.863Z,20.37
2019-05-30T10:30:22.249Z,21.00
2019-05-30T10:33:23.859Z,21.62
2019-05-30T10:36:25.379Z,21.50
2019-05-30T10:39:26.903Z,21.12
2019-05-30T10:42:28.397Z,20.37
2019-05-30T10:45:30.020Z,21.25
2019-05-30T10:48:31.618Z,22.00
2019-05-30T10:51:33.085Z,22.00
2019-05-30T10:54:34.646Z,21.00
2019-05-30T10:57:36.207Z,20.75
2019-05-30T11:00:53.791Z,21.37
2019-05-30T11:03:55.306Z,21.62
2019-05-30T11:07:23.278Z,21.75
2019-05-30T11:10:38.830Z,21.69
2019-05-30T11:13:40.347Z,21.62
2019-05-30T11:16:41.904Z,21.81
2019-05-30T11:19:43.439Z,21.94
2019-05-30T11:22:44.942Z,22.19
2019-05-30T11:25:46.474Z,22.06
2019-05-30T11:28:48.576Z,22.19
2019-05-30T11:31:50.738Z,21.69
2019-05-30T11:34:53.371Z,21.31
2019-05-30T11:37:55.221Z,22.19
2019-05-30T11:40:57.554Z,22.00
2019-05-30T11:43:59.771Z,21.19
2019-05-30T11:47:02.457Z,21.56
2019-05-30T11:50:04.105Z,22.25
2019-05-30T11:53:05.597Z,21.94
2019-05-30T11:56:07.161Z,22.00
2019-05-30T11:59:08.694Z,21.44
2019-05-30T12:02:10.400Z,22.00
2019-05-30T12:05:12.230Z,22.75
2019-05-30T12:08:13.741Z,23.00
2019-05-30T12:11:15.233Z,22.50
2019-05-30T12:14:16.790Z,22.75
2019-05-30T12:17:18.301Z,22.81
2019-05-30T12:20:21.340Z,22.94
2019-05-30T12:23:24.007Z,23.25
2019-05-30T12:26:25.501Z,23.12
2019-05-30T12:29:27.052Z,22.94
2019-05-30T12:32:28.570Z,22.81
2019-05-30T12:35:30.099Z,22.56
2019-05-30T12:38:31.590Z,22.94
2019-05-30T12:41:33.156Z,22.56
2019-05-30T12:44:34.664Z,22.69
2019-05-30T12:47:36.165Z,22.94
2019-05-30T12:50:37.682Z,23.50
2019-05-30T12:53:39.150Z,23.31
2019-05-30T12:56:40.684Z,23.12
2019-05-30T12:59:42.180Z,23.31
2019-05-30T13:02:43.678Z,23.12
2019-05-30T13:05:45.183Z,22.50
2019-05-30T13:08:46.673Z,22.37
2019-05-30T13:11:48.278Z,22.31
2019-05-30T13:14:49.792Z,23.38
2019-05-30T13:17:51.384Z,23.69
2019-05-30T13:20:52.913Z,23.38
2019-05-30T13:23:55.482Z,23.44
2019-05-30T13:26:57.643Z,23.62
2019-05-30T13:29:59.983Z,23.62
2019-05-30T13:33:03.034Z,23.81
2019-05-30T13:36:05.139Z,23.81
2019-05-30T13:39:08.102Z,24.63
2019-05-30T13:42:09.728Z,24.37
2019-05-30T13:45:11.653Z,24.19
2019-05-30T13:48:14.231Z,23.62
2019-05-30T13:51:15.838Z,23.56
2019-05-30T13:54:17.364Z,23.44
2019-05-30T13:57:18.890Z,23.56
2019-05-30T14:00:21.109Z,23.38
2019-05-30T14:03:22.686Z,23.38
2019-05-30T14:06:24.282Z,23.06
2019-05-30T14:09:25.874Z,23.12
2019-05-30T14:12:27.483Z,22.94
2019-05-30T14:15:29.203Z,23.00
2019-05-30T14:18:30.687Z,23.00
2019-05-30T14:21:32.207Z,23.19
2019-05-30T14:24:33.718Z,22.94
2019-05-30T14:27:35.214Z,22.81
2019-05-30T14:30:36.724Z,22.62
2019-05-30T14:33:38.206Z,22.56
2019-05-30T14:36:39.744Z,22.44
2019-05-30T14:39:41.267Z,22.69
2019-05-30T14:42:42.775Z,22.50
2019-05-30T14:45:44.299Z,22.69
2019-05-30T14:48:45.788Z,22.62
2019-05-30T14:51:47.349Z,22.94
2019-05-30T14:54:48.863Z,22.81
2019-05-30T14:57:50.390Z,22.50
2019-05-30T15:00:51.930Z,22.44
2019-05-30T15:03:54.607Z,22.50
2019-05-30T15:06:56.118Z,22.37
2019-05-30T15:09:57.656Z,22.37
2019-05-30T15:12:59.207Z,22.19
2019-05-30T15:16:00.766Z,22.13
2019-05-30T15:19:02.336Z,22.25
2019-05-30T15:22:03.852Z,22.25
2019-05-30T15:25:05.812Z,22.25
2019-05-30T15:28:08.093Z,22.13
2019-05-30T15:31:10.263Z,22.19
2019-05-30T15:34:12.615Z,22.19
2019-05-30T15:37:14.853Z,22.06
2019-05-30T15:40:17.189Z,22.13
2019-05-30T15:43:18.788Z,22.25
2019-05-30T15:46:20.339Z,22.31
2019-05-30T15:49:21.807Z,22.13
2019-05-30T15:52:23.319Z,22.13
2019-05-30T15:55:24.782Z,22.13
2019-05-30T15:58:26.328Z,22.06
2019-05-30T16:01:27.819Z,21.81
2019-05-30T16:04:29.309Z,21.87
2019-05-30T16:07:30.819Z,22.00
2019-05-30T16:10:32.384Z,22.00
2019-05-30T16:13:33.923Z,22.13
2019-05-30T16:16:40.181Z,22.13
2019-05-30T16:19:38.632Z,21.94
2019-05-30T16:22:40.209Z,22.06
2019-05-30T16:25:41.711Z,21.87
2019-05-30T16:28:43.246Z,21.75
2019-05-30T16:31:44.767Z,21.81
2019-05-30T16:34:46.247Z,21.81
2019-05-30T16:37:47.766Z,21.81
2019-05-30T16:40:49.253Z,21.75
2019-05-30T16:43:50.794Z,21.81
2019-05-30T16:46:52.347Z,21.81
2019-05-30T16:49:53.831Z,21.69
2019-05-30T16:52:55.385Z,21.44
2019-05-30T16:55:56.852Z,21.44
2019-05-30T16:58:58.453Z,21.44
2019-05-30T17:02:00.003Z,21.56
2019-05-30T17:05:01.513Z,21.56
2019-05-30T17:08:03.031Z,21.31
2019-05-30T17:11:04.514Z,21.25
2019-05-30T17:14:06.335Z,21.31
2019-05-30T17:17:07.871Z,21.25
2019-05-30T17:20:11.455Z,21.25
2019-05-30T17:23:13.018Z,21.19
2019-05-30T17:26:14.580Z,21.19
2019-05-30T17:29:17.338Z,21.00
2019-05-30T17:32:19.710Z,20.94
2019-05-30T17:35:22.065Z,20.88
2019-05-30T17:38:24.592Z,20.81
2019-05-30T17:41:26.809Z,20.81
2019-05-30T17:44:29.780Z,20.81
2019-05-30T17:47:32.538Z,20.75
2019-05-30T17:50:34.070Z,20.81
2019-05-30T17:53:35.684Z,20.75
2019-05-30T17:56:37.211Z,20.69
2019-05-30T17:59:38.727Z,20.62
2019-05-30T18:02:40.304Z,20.62
2019-05-30T18:05:41.861Z,20.62
2019-05-30T18:08:43.428Z,20.56
2019-05-30T18:11:45.013Z,20.50
2019-05-30T18:14:46.518Z,20.50
2019-05-30T18:17:49.142Z,20.37
2019-05-30T18:20:50.705Z,20.25
2019-05-30T18:23:52.286Z,20.25
2019-05-30T18:26:53.821Z,20.19
2019-05-30T18:29:55.406Z,20.06
2019-05-30T18:32:58.010Z,20.06
2019-05-30T18:35:59.535Z,20.00
2019-05-30T18:39:01.126Z,19.81
2019-05-30T18:42:04.233Z,19.87
2019-05-30T18:45:06.581Z,19.69
2019-05-30T18:48:08.811Z,19.62
2019-05-30T18:51:10.405Z,19.62
2019-05-30T18:54:12.079Z,19.56
2019-05-30T18:57:13.603Z,19.62
2019-05-30T19:00:17.383Z,19.62
2019-05-30T19:03:18.883Z,19.19
2019-05-30T19:06:20.442Z,19.25
2019-05-30T19:09:22.049Z,19.12
2019-05-30T19:12:24.281Z,19.19
2019-05-30T19:15:29.320Z,19.12
2019-05-30T19:18:29.493Z,19.12
2019-05-30T19:21:32.302Z,19.19
2019-05-30T19:24:34.189Z,19.06
2019-05-30T19:27:37.951Z,19.00
2019-05-30T19:30:41.109Z,18.87
2019-05-30T19:33:42.224Z,18.81
2019-05-30T19:36:43.850Z,18.75
2019-05-30T19:39:45.467Z,18.75
2019-05-30T19:42:46.988Z,18.75
2019-05-30T19:45:48.519Z,18.87
2019-05-30T19:48:50.063Z,18.81
2019-05-30T19:51:51.582Z,18.56
2019-05-30T19:54:53.146Z,18.44
2019-05-30T19:57:54.689Z,18.37
2019-05-30T20:00:58.805Z,18.31
2019-05-30T20:03:59.423Z,18.31
2019-05-30T20:07:01.009Z,18.25
2019-05-30T20:10:02.582Z,18.25
2019-05-30T20:13:04.185Z,18.37
2019-05-30T20:16:05.752Z,18.19
2019-05-30T20:19:07.254Z,18.12
2019-05-30T20:22:08.801Z,18.12
2019-05-30T20:25:11.555Z,18.25
2019-05-30T20:28:13.114Z,18.37
2019-05-30T20:31:14.735Z,18.44
2019-05-30T20:34:16.377Z,18.44
2019-05-30T20:37:21.823Z,18.37
2019-05-30T20:40:24.452Z,18.37
2019-05-30T20:43:26.007Z,18.31
2019-05-30T20:46:27.615Z,18.25
2019-05-30T20:49:29.130Z,18.19
2019-05-30T20:52:30.676Z,18.00
2019-05-30T20:55:32.220Z,18.06
2019-05-30T20:58:33.826Z,18.12
2019-05-30T21:01:35.612Z,18.12
2019-05-30T21:04:37.323Z,18.06
2019-05-30T21:07:39.803Z,18.12
2019-05-30T21:10:43.242Z,18.06
2019-05-30T21:13:46.418Z,18.12
2019-05-30T21:16:49.750Z,18.00
2019-05-30T21:19:51.318Z,18.06
2019-05-30T21:22:53.088Z,18.06
2019-05-30T21:25:54.673Z,18.00
2019-05-30T21:28:56.167Z,18.06
2019-05-30T21:31:57.753Z,18.00
2019-05-30T21:34:59.382Z,18.00
2019-05-30T21:38:01.028Z,18.06
2019-05-30T21:41:02.571Z,17.94
2019-05-30T21:44:04.075Z,18.00
2019-05-30T21:47:05.720Z,18.00
2019-05-30T21:50:09.070Z,17.81
2019-05-30T21:53:10.615Z,17.69
2019-05-30T21:56:13.007Z,17.69
2019-05-30T21:59:14.743Z,17.75
2019-05-30T22:02:16.340Z,17.69
2019-05-30T22:05:17.940Z,17.56
2019-05-30T22:08:19.550Z,17.56
2019-05-30T22:11:21.537Z,17.31
2019-05-30T22:14:23.044Z,17.12
2019-05-30T22:17:24.739Z,17.25
2019-05-30T22:20:26.339Z,17.44
2019-05-30T22:23:27.888Z,17.44
2019-05-30T22:26:29.419Z,17.19
2019-05-30T22:29:30.934Z,17.12
2019-05-30T22:32:32.528Z,17.12
2019-05-30T22:35:34.023Z,17.31
2019-05-30T22:38:35.752Z,17.37
2019-05-30T22:41:37.287Z,17.06
2019-05-30T22:44:38.834Z,16.94
2019-05-30T22:47:40.371Z,17.00
2019-05-30T22:50:41.910Z,17.00
2019-05-30T22:53:44.829Z,17.19
2019-05-30T22:56:47.285Z,17.31
2019-05-30T22:59:48.922Z,17.31
2019-05-30T23:02:50.444Z,17.12
2019-05-30T23:05:53.284Z,17.19
2019-05-30T23:08:55.062Z,17.00
2019-05-30T23:11:56.581Z,17.00
2019-05-30T23:14:58.118Z,17.12
2019-05-30T23:17:59.669Z,16.94
2019-05-30T23:21:01.244Z,17.06
2019-05-30T23:24:02.911Z,17.06
2019-05-30T23:27:08.134Z,17.06
2019-05-30T23:30:08.019Z,16.94
2019-05-30T23:33:09.662Z,17.06
2019-05-30T23:36:11.172Z,17.12
2019-05-30T23:39:12.699Z,17.19
2019-05-30T23:42:14.231Z,17.19
2019-05-30T23:45:15.942Z,17.25
2019-05-30T23:48:17.510Z,17.12
2019-05-30T23:51:19.085Z,17.19
2019-05-30T23:54:20.596Z,17.06
2019-05-30T23:57:22.115Z,17.00
